Terminal Aerodrome Forecast
Issued by NWS

Home | Current Version | Previous Version | Text Only | Print | Product List | Glossary On
Versions: 1 2 3 4 5 6 7 8 9 10 11 12 13 14 15 16 17 18
000
FTUS41 KBTV 252331
TAFSLK
TAF
KSLK 252331Z 2600/2624 06010G17KT P6SM VCSH SCT025 BKN035 OVC050
      TEMPO 2600/2604 4SM -SHRA BR SCT018 BKN025
     FM260500 05007KT P6SM -SHRA SCT015 OVC025
     FM260900 04006KT 5SM -SHRA BR OVC007
     FM261500 03006KT 4SM -SHRA BR OVC006
     FM262100 02005KT P6SM OVC010=

USA.gov is the U.S. government's official web portal to all federal, state and local government web resources and services.